Sealand Illinois — 9HA3372 — position and weather

sailwx.info

Track history (hours):
 
Tides and Currents Weather Stations Pressure Air Temp Water Temp Dewpoint Dewpoint Depression Visibility Wind Speed Wind Dir Waves Ship Positions

Sealand Illinois

Last reported at 2018-Apr-16 07:43 UTC. Time now 2018-Apr-23 11:43 UTC.
Position N 37°45' W 009°48'.

Length 304 m; draft 13.7 m.

Type: Ship (hazmat cat A). MMSI: 229487000.

Date/timePositionNaut miles runAvg speedWind from/ knotsBaromVisibWave heightAir tempDewpointWater temp
2018-Apr-16 07:43N 37°45' W 009°48'418.2
2018-Apr-16 07:30N 37°47' W 009°44'1017.3
2018-Apr-16 06:57N 37°49' W 009°32'817.7
2018-Apr-16 06:30N 37°50' W 009°23'917.4
2018-Apr-16 06:00N 37°50' W 009°12'917.5
2018-Apr-16 05:30N 37°51' W 009°01'714.5
2018-Apr-16 05:00N 37°52' W 008°51'4 7.9
2018-Apr-16 04:31N 37°56' W 008°51'0 0.1
2018-Apr-16 03:59N 37°56' W 008°51'0 0.0
2018-Apr-16 03:29N 37°56' W 008°51'0 0.0
2018-Apr-16 02:59N 37°56' W 008°51'0 0.0
2018-Apr-16 02:29N 37°56' W 008°51'0 0.0
2018-Apr-16 01:59N 37°56' W 008°51'0 0.0
2018-Apr-16 01:29N 37°56' W 008°51'0 0.0
2018-Apr-16 00:59N 37°56' W 008°51'0 0.0
2018-Apr-16 00:29N 37°56' W 008°51'0 0.0
2018-Apr-15 23:59N 37°56' W 008°51'0 0.0
2018-Apr-15 23:29N 37°56' W 008°51'0 0.0
2018-Apr-15 22:59N 37°56' W 008°51'0 0.0
2018-Apr-15 22:29N 37°56' W 008°51'0 0.0
2018-Apr-15 21:56N 37°56' W 008°51'0 0.0
2018-Apr-15 21:29N 37°56' W 008°51'0 0.0
2018-Apr-15 20:59N 37°56' W 008°51'0 0.0
2018-Apr-15 20:29N 37°56' W 008°51'0 0.0
2018-Apr-15 19:59N 37°56' W 008°51'0 0.0
2018-Apr-15 19:29N 37°56' W 008°51'0 0.0
2018-Apr-15 18:59N 37°56' W 008°51'0 0.0
2018-Apr-15 18:29N 37°56' W 008°51'1 1.7
2018-Apr-15 18:00N 37°55' W 008°50'2 3.5
2018-Apr-15 17:30N 37°53' W 008°50'5 9.6
2018-Apr-15 17:00N 37°49' W 008°53'5 9.8
2018-Apr-15 16:30N 37°45' W 008°55'0 0.5
2018-Apr-15 16:00N 37°45' W 008°55'0 0.5
2018-Apr-15 15:30N 37°45' W 008°56'0 0.6
2018-Apr-15 14:59N 37°45' W 008°56'0 0.7
2018-Apr-15 14:30N 37°45' W 008°57'0 0.8
2018-Apr-15 14:00N 37°45' W 008°57'0 0.4
2018-Apr-15 13:30N 37°45' W 008°57'4 8.8
2018-Apr-15 13:00N 37°41' W 008°58'713.0
2018-Apr-15 12:30N 37°35' W 009°01'913.2
2018-Apr-15 11:49N 37°27' W 009°06'413.0
2018-Apr-15 11:30N 37°23' W 009°08'1713.6
2018-Apr-15 10:15N 37°08' W 009°17'413.9
2018-Apr-15 09:59N 37°04' W 009°19'18913.3
2018-Apr-14 19:46N 35°58' W 005°39'312.3
2018-Apr-14 19:30N 35°58' W 005°35'611.8
2018-Apr-14 19:00N 36°00' W 005°28'5 9.6
2018-Apr-14 18:30N 36°03' W 005°24'611.4
2018-Apr-14 18:01N 36°09' W 005°24'1 2.6
2018-Apr-14 17:30N 36°09' W 005°26'0 0.1
2018-Apr-14 16:51N 36°09' W 005°26'0 0.0
2018-Apr-14 16:24N 36°09' W 005°26'0 0.0
2018-Apr-14 16:00N 36°09' W 005°26'0 0.0
2018-Apr-14 15:30N 36°09' W 005°26'0 0.0
2018-Apr-14 15:00N 36°09' W 005°26'0 0.0
2018-Apr-14 14:30N 36°09' W 005°26'0 0.0
2018-Apr-14 13:57N 36°09' W 005°26'0 0.0
2018-Apr-14 13:30N 36°09' W 005°26'0 0.0
2018-Apr-14 13:00N 36°09' W 005°26'0 0.0
2018-Apr-14 12:09N 36°09' W 005°26'0 0.0
2018-Apr-14 12:00N 36°09' W 005°26'0 0.0
2018-Apr-14 11:30N 36°09' W 005°26'0 0.0
2018-Apr-14 11:00N 36°09' W 005°26'0 0.0
2018-Apr-14 10:24N 36°09' W 005°26'0 0.0
2018-Apr-14 09:12N 36°09' W 005°26'0 0.0
2018-Apr-14 08:54N 36°09' W 005°26'0 0.0
2018-Apr-14 08:24N 36°09' W 005°26'0 0.0
2018-Apr-14 07:51N 36°09' W 005°26'0 0.0
2018-Apr-14 07:24N 36°09' W 005°26'0 0.0
2018-Apr-14 06:06N 36°09' W 005°26'0 0.1
2018-Apr-14 06:00N 36°09' W 005°26'0 0.0
2018-Apr-14 05:18N 36°09' W 005°26'0 0.0
2018-Apr-14 05:00N 36°09' W 005°26'0 0.0
2018-Apr-14 04:27N 36°09' W 005°26'0 0.0
2018-Apr-14 04:00N 36°09' W 005°26'0 0.0
2018-Apr-14 03:21N 36°09' W 005°26'0 0.0
2018-Apr-14 03:00N 36°09' W 005°26'0 0.0
2018-Apr-14 02:27N 36°09' W 005°26'0 0.1
2018-Apr-14 02:01N 36°09' W 005°26'3 5.6
2018-Apr-14 01:30N 36°07' W 005°23'510.6
2018-Apr-14 01:01N 36°04' W 005°18'21414.5
2018-Apr-13 10:16N 37°11' W 001°05'519.1
2018-Apr-13 10:00N 37°15' W 000°60'1019.1
2018-Apr-13 09:30N 37°21' W 000°51'1019.1
2018-Apr-13 08:57N 37°29' W 000°41'919.6
2018-Apr-13 08:30N 37°34' W 000°33'1019.3
2018-Apr-13 08:00N 37°42' W 000°26'919.3
2018-Apr-13 07:31N 37°50' W 000°19'1019.3
2018-Apr-13 07:00N 37°58' W 000°12'8715.6
2018-Apr-13 01:27N 39°25' W 000°16'3 0.2
2018-Apr-12 06:16N 39°26' W 000°20'0 0.0
2018-Apr-12 05:59N 39°26' W 000°20'1 1.1
2018-Apr-12 05:29N 39°26' W 000°19'3 7.1
2018-Apr-12 05:00N 39°25' W 000°15'1 1.4
2018-Apr-12 04:30N 39°25' W 000°15'2 4.9
2018-Apr-12 04:00N 39°26' W 000°11'0 0.7
2018-Apr-12 03:30N 39°25' W 000°12'0 0.1
2018-Apr-12 02:58N 39°25' W 000°12'3 5.4
2018-Apr-12 02:29N 39°25' W 000°08'39313.8
2018-Apr-10 21:57N 43°06' E 007°04'716.8
2018-Apr-10 21:30N 43°11' E 007°12'816.6
2018-Apr-10 21:00N 43°16' E 007°21'816.6
2018-Apr-10 20:30N 43°22' E 007°30'4617.1
2018-Apr-10 17:50N 43°51' E 008°18'616.8
2018-Apr-10 17:30N 43°55' E 008°23'917.3
2018-Apr-10 17:00N 44°03' E 008°29'817.1
2018-Apr-10 16:30N 44°10' E 008°35'816.8
2018-Apr-10 16:00N 44°17' E 008°41'815.2
2018-Apr-10 15:30N 44°24' E 008°44'2 4.8
2018-Apr-10 15:00N 44°25' E 008°47'0 0.0
2018-Apr-10 14:30N 44°25' E 008°47'0 0.0
2018-Apr-10 14:00N 44°25' E 008°47'0 0.0
2018-Apr-10 13:30N 44°25' E 008°47'0 0.0
2018-Apr-10 13:00N 44°25' E 008°47'0 0.0
2018-Apr-10 12:27N 44°25' E 008°47'0 0.0
2018-Apr-10 12:00N 44°25' E 008°47'0 0.0
2018-Apr-10 11:30N 44°25' E 008°47'0 0.0
2018-Apr-10 11:00N 44°25' E 008°47'0 0.0
2018-Apr-10 10:18N 44°25' E 008°47'0 0.0
2018-Apr-10 10:00N 44°25' E 008°47'0 0.0
2018-Apr-10 09:30N 44°25' E 008°47'0 0.0
2018-Apr-10 09:00N 44°25' E 008°47'0 0.0
2018-Apr-10 08:18N 44°25' E 008°47'0 0.0
2018-Apr-10 08:00N 44°25' E 008°47'0 0.0
2018-Apr-10 07:27N 44°25' E 008°47'0 0.1
2018-Apr-10 06:54N 44°25' E 008°47'0 0.1
2018-Apr-10 06:30N 44°25' E 008°47'0 0.0
2018-Apr-10 06:00N 44°25' E 008°47'0 0.0
2018-Apr-10 05:30N 44°25' E 008°47'0 0.0
2018-Apr-10 04:57N 44°25' E 008°47'0 0.0
2018-Apr-10 04:30N 44°25' E 008°47'0 0.0
2018-Apr-10 04:00N 44°25' E 008°47'0 0.0
2018-Apr-10 03:30N 44°25' E 008°47'0 0.0
2018-Apr-10 03:00N 44°25' E 008°47'0 0.0
2018-Apr-10 02:30N 44°25' E 008°47'0 0.0
2018-Apr-10 02:00N 44°25' E 008°47'0 0.0
2018-Apr-10 01:30N 44°25' E 008°47'0 0.0
2018-Apr-10 01:00N 44°25' E 008°47'0 0.0
2018-Apr-10 00:30N 44°25' E 008°47'0 0.0
2018-Apr-10 00:00N 44°25' E 008°47'0 0.0
2018-Apr-09 23:30N 44°25' E 008°47'0 0.0
2018-Apr-09 23:00N 44°25' E 008°47'0 0.0
2018-Apr-09 22:30N 44°25' E 008°47'0 0.0
2018-Apr-09 22:00N 44°25' E 008°47'0 0.0
2018-Apr-09 21:30N 44°25' E 008°47'0 0.0
2018-Apr-09 21:00N 44°25' E 008°47'0 0.0
2018-Apr-09 20:30N 44°25' E 008°47'0 0.0
2018-Apr-09 20:00N 44°25' E 008°47'0 0.0
2018-Apr-09 19:27N 44°25' E 008°47'0 0.0
2018-Apr-09 19:00N 44°25' E 008°47'0 0.0
2018-Apr-09 18:30N 44°25' E 008°47'0 0.0
2018-Apr-09 18:00N 44°25' E 008°47'0 0.0
2018-Apr-09 17:30N 44°25' E 008°47'0 0.0
2018-Apr-09 17:00N 44°25' E 008°47'0 0.0
2018-Apr-09 16:30N 44°25' E 008°47'0 0.0
2018-Apr-09 16:00N 44°25' E 008°47'0 0.0
2018-Apr-09 15:27N 44°25' E 008°47'0 0.0
2018-Apr-09 15:00N 44°25' E 008°47'0 0.0
2018-Apr-09 14:24N 44°25' E 008°47'0 0.0
2018-Apr-09 13:57N 44°25' E 008°47'0 0.0
2018-Apr-09 13:30N 44°25' E 008°47'0 0.0
2018-Apr-09 13:00N 44°25' E 008°47'0 0.0
2018-Apr-09 12:30N 44°25' E 008°47'0 0.4
2018-Apr-09 12:01N 44°25' E 008°47'3 6.3
2018-Apr-09 11:31N 44°23' E 008°44'510.2
2018-Apr-09 11:01N 44°18' E 008°45'816.9
2018-Apr-09 10:31N 44°12' E 008°53'1 1.9
2018-Apr-09 10:01N 44°11' E 008°54'0 0.5
2018-Apr-09 09:30N 44°11' E 008°54'0 0.5
2018-Apr-09 09:00N 44°12' E 008°54'0 0.6
2018-Apr-09 08:30N 44°12' E 008°54'0 0.8
2018-Apr-09 08:01N 44°12' E 008°53'0 0.9
2018-Apr-09 07:30N 44°12' E 008°53'1 1.1
2018-Apr-09 07:01N 44°13' E 008°52'1 1.3
2018-Apr-09 06:31N 44°13' E 008°51'1 1.2
2018-Apr-09 06:00N 44°14' E 008°51'1 1.2
2018-Apr-09 05:31N 44°14' E 008°50'1 1.1
2018-Apr-09 05:00N 44°15' E 008°50'1 1.4
2018-Apr-09 04:31N 44°15' E 008°49'1 1.4
2018-Apr-09 04:01N 44°16' E 008°49'1 1.4
2018-Apr-09 03:31N 44°16' E 008°48'1 1.4
2018-Apr-09 03:01N 44°16' E 008°47'1 1.2
2018-Apr-09 02:30N 44°17' E 008°46'1 1.2
2018-Apr-09 02:01N 44°17' E 008°46'0 0.7
2018-Apr-09 01:30N 44°17' E 008°45'0 0.1
2018-Apr-09 01:01N 44°17' E 008°45'0 0.3
2018-Apr-09 00:30N 44°17' E 008°45'0 0.8
2018-Apr-09 00:00N 44°18' E 008°46'0 0.5
2018-Apr-08 23:30N 44°18' E 008°46'0 0.3
2018-Apr-08 23:00N 44°18' E 008°46'0 0.2
2018-Apr-08 22:31N 44°18' E 008°46'0 0.7
2018-Apr-08 22:01N 44°18' E 008°46'0 0.9
2018-Apr-08 21:30N 44°17' E 008°46'0 0.7
2018-Apr-08 21:01N 44°17' E 008°46'1 1.2
2018-Apr-08 20:31N 44°17' E 008°47'1 1.0
2018-Apr-08 20:01N 44°17' E 008°47'0 0.8
2018-Apr-08 19:31N 44°17' E 008°48'3 5.3
2018-Apr-08 19:01N 44°15' E 008°50'5 9.5
2018-Apr-08 18:31N 44°12' E 008°55'5 9.9
2018-Apr-08 18:01N 44°08' E 008°60'510.1
2018-Apr-08 17:31N 44°05' E 009°05'510.1
2018-Apr-08 17:01N 44°02' E 009°10'510.2
2018-Apr-08 16:30N 43°58' E 009°16'510.2
2018-Apr-08 16:01N 43°55' E 009°21'510.1
2018-Apr-08 15:30N 43°52' E 009°27'510.1
2018-Apr-08 15:00N 43°49' E 009°32'510.2
2018-Apr-08 14:30N 43°46' E 009°38'510.3
2018-Apr-08 14:00N 43°42' E 009°43'510.3
2018-Apr-08 13:30N 43°39' E 009°48'510.1
2018-Apr-08 13:00N 43°35' E 009°53'510.3
2018-Apr-08 12:30N 43°32' E 009°59'510.4
2018-Apr-08 12:00N 43°31' E 010°06'5 9.0
2018-Apr-08 11:30N 43°31' E 010°12'4 8.0
2018-Apr-08 11:00N 43°32' E 010°17'2 4.6
2018-Apr-08 10:30N 43°34' E 010°18'0 0.1
2018-Apr-08 09:59N 43°35' E 010°18'0 0.0
2018-Apr-08 09:26N 43°35' E 010°18'0 0.0
2018-Apr-08 08:59N 43°35' E 010°18'0 0.0
2018-Apr-08 08:29N 43°35' E 010°18'0 0.0
2018-Apr-08 07:59N 43°35' E 010°18'0 0.0
2018-Apr-08 07:29N 43°35' E 010°18'0 0.0
2018-Apr-08 06:59N 43°35' E 010°18'0 0.0
2018-Apr-08 06:29N 43°35' E 010°18'0 0.0
2018-Apr-08 05:59N 43°35' E 010°18'0 0.0
2018-Apr-08 05:29N 43°35' E 010°18'0 0.0
2018-Apr-08 04:56N 43°35' E 010°18'0 0.0
2018-Apr-08 04:29N 43°35' E 010°18'0 0.0
2018-Apr-08 03:59N 43°35' E 010°18'0 0.0
2018-Apr-08 03:29N 43°35' E 010°18'0 0.0
2018-Apr-08 02:59N 43°35' E 010°18'0 0.0
2018-Apr-08 02:29N 43°35' E 010°18'0 0.0
2018-Apr-08 01:56N 43°35' E 010°18'0 0.0
2018-Apr-08 01:29N 43°35' E 010°18'0 0.0
2018-Apr-08 00:59N 43°35' E 010°18'0 0.0
2018-Apr-08 00:29N 43°35' E 010°18'0 0.0
2018-Apr-07 23:59N 43°35' E 010°18'0 0.0
2018-Apr-07 23:26N 43°35' E 010°18'0 0.0
2018-Apr-07 22:59N 43°35' E 010°18'0 0.0
2018-Apr-07 22:29N 43°35' E 010°18'0 0.0
2018-Apr-07 21:59N 43°35' E 010°18'0 0.0
2018-Apr-07 21:29N 43°35' E 010°18'0 0.0
2018-Apr-07 20:59N 43°35' E 010°18'0 0.0
2018-Apr-07 20:29N 43°35' E 010°18'0 0.0
2018-Apr-07 19:59N 43°35' E 010°18'0 0.0
2018-Apr-07 19:29N 43°35' E 010°18'0 0.0
2018-Apr-07 18:59N 43°35' E 010°18'0 0.0
2018-Apr-07 18:29N 43°35' E 010°18'0 0.0
2018-Apr-07 17:59N 43°35' E 010°18'0 0.0
2018-Apr-07 17:29N 43°35' E 010°18'0 0.0
2018-Apr-07 16:59N 43°35' E 010°18'0 0.0
2018-Apr-07 16:29N 43°35' E 010°18'0 0.0
2018-Apr-07 15:59N 43°35' E 010°18'0 0.0
2018-Apr-07 15:29N 43°35' E 010°18'0 0.0
2018-Apr-07 14:59N 43°35' E 010°18'0 0.0
2018-Apr-07 14:29N 43°35' E 010°18'0 0.0
2018-Apr-07 13:56N 43°35' E 010°18'0 0.0
2018-Apr-07 13:26N 43°35' E 010°18'0 0.0
2018-Apr-07 12:59N 43°35' E 010°18'0 0.0
2018-Apr-07 12:29N 43°35' E 010°18'0 0.0
2018-Apr-07 11:59N 43°35' E 010°18'0 0.0
2018-Apr-07 11:29N 43°35' E 010°18'0 0.0
2018-Apr-07 10:59N 43°35' E 010°18'0 0.0
2018-Apr-07 10:29N 43°35' E 010°18'0 0.0
2018-Apr-07 09:59N 43°35' E 010°18'0 0.0
2018-Apr-07 09:29N 43°35' E 010°18'0 0.0
2018-Apr-07 08:59N 43°35' E 010°18'0 0.0
2018-Apr-07 08:29N 43°35' E 010°18'0 0.0
2018-Apr-07 07:59N 43°35' E 010°18'0 0.0
2018-Apr-07 07:29N 43°35' E 010°18'0 0.0
2018-Apr-07 06:59N 43°35' E 010°18'0 0.0
2018-Apr-07 06:29N 43°35' E 010°18'0 0.0
2018-Apr-07 05:59N 43°35' E 010°18'0 0.4
2018-Apr-07 05:30N 43°34' E 010°18'2 4.1
2018-Apr-07 05:01N 43°32' E 010°17'2 4.3
2018-Apr-07 04:30N 43°31' E 010°15'5 9.3
2018-Apr-07 04:00N 43°27' E 010°11'815.1
2018-Apr-07 03:31N 43°20' E 010°07'917.8
2018-Apr-07 03:00N 43°12' E 010°04'918.2
2018-Apr-07 02:31N 43°03' E 010°01'918.0
2018-Apr-07 02:00N 42°54' E 009°58'917.6
2018-Apr-07 01:31N 42°46' E 009°57'918.0
2018-Apr-07 01:00N 42°36' E 009°57'918.2
2018-Apr-07 00:31N 42°27' E 009°58'918.0
2018-Apr-07 00:01N 42°19' E 010°00'918.2
2018-Apr-06 23:31N 42°12' E 010°09'1018.2
2018-Apr-06 22:58N 42°07' E 010°20'1018.6
2018-Apr-06 22:24N 42°01' E 010°31'718.2
2018-Apr-06 22:00N 41°56' E 010°40'918.2
2018-Apr-06 21:29N 41°51' E 010°50'918.3
2018-Apr-06 20:59N 41°46' E 011°00'3018.2
2018-Apr-06 19:21N 41°30' E 011°33'11717.8
2018-Apr-06 12:48N 40°38' E 013°53'518.2
2018-Apr-06 12:30N 40°37' E 013°59'917.5
2018-Apr-06 12:00N 40°41' E 014°10'816.6
2018-Apr-06 11:30N 40°47' E 014°17'3 5.7
2018-Apr-06 11:00N 40°50' E 014°17'0 0.1
2018-Apr-06 10:28N 40°50' E 014°17'0 0.0
2018-Apr-06 09:58N 40°50' E 014°17'0 0.0
2018-Apr-06 09:28N 40°50' E 014°17'0 0.0
2018-Apr-06 08:58N 40°50' E 014°17'0 0.0
2018-Apr-06 08:28N 40°50' E 014°17'0 0.0
2018-Apr-06 07:58N 40°50' E 014°17'  
Track history (hours):
 
Tides and Currents Weather Stations Pressure Air Temp Water Temp Dewpoint Dewpoint Depression Visibility Wind Speed Wind Dir Waves Ship Positions

Sealand Illinois

Last reported at 2018-Apr-16 07:43 UTC. Time now 2018-Apr-23 11:43 UTC.
Position N 37°45' W 009°48'.

Length 304 m; draft 13.7 m.

Type: Ship (hazmat cat A). MMSI: 229487000.

Date/timePositionNaut miles runAvg speedWind from/ knotsBaromVisibWave heightAir tempDewpointWater temp
2018-Apr-16 07:43N 37°45' W 009°48'418.2
2018-Apr-16 07:30N 37°47' W 009°44'1017.3
2018-Apr-16 06:57N 37°49' W 009°32'817.7
2018-Apr-16 06:30N 37°50' W 009°23'917.4
2018-Apr-16 06:00N 37°50' W 009°12'917.5
2018-Apr-16 05:30N 37°51' W 009°01'714.5
2018-Apr-16 05:00N 37°52' W 008°51'4 7.9
2018-Apr-16 04:31N 37°56' W 008°51'0 0.1
2018-Apr-16 03:59N 37°56' W 008°51'0 0.0
2018-Apr-16 03:29N 37°56' W 008°51'0 0.0
2018-Apr-16 02:59N 37°56' W 008°51'0 0.0
2018-Apr-16 02:29N 37°56' W 008°51'0 0.0
2018-Apr-16 01:59N 37°56' W 008°51'0 0.0
2018-Apr-16 01:29N 37°56' W 008°51'0 0.0
2018-Apr-16 00:59N 37°56' W 008°51'0 0.0
2018-Apr-16 00:29N 37°56' W 008°51'0 0.0
2018-Apr-15 23:59N 37°56' W 008°51'0 0.0
2018-Apr-15 23:29N 37°56' W 008°51'0 0.0
2018-Apr-15 22:59N 37°56' W 008°51'0 0.0
2018-Apr-15 22:29N 37°56' W 008°51'0 0.0
2018-Apr-15 21:56N 37°56' W 008°51'0 0.0
2018-Apr-15 21:29N 37°56' W 008°51'0 0.0
2018-Apr-15 20:59N 37°56' W 008°51'0 0.0
2018-Apr-15 20:29N 37°56' W 008°51'0 0.0
2018-Apr-15 19:59N 37°56' W 008°51'0 0.0
2018-Apr-15 19:29N 37°56' W 008°51'0 0.0
2018-Apr-15 18:59N 37°56' W 008°51'0 0.0
2018-Apr-15 18:29N 37°56' W 008°51'1 1.7
2018-Apr-15 18:00N 37°55' W 008°50'2 3.5
2018-Apr-15 17:30N 37°53' W 008°50'5 9.6
2018-Apr-15 17:00N 37°49' W 008°53'5 9.8
2018-Apr-15 16:30N 37°45' W 008°55'0 0.5
2018-Apr-15 16:00N 37°45' W 008°55'0 0.5
2018-Apr-15 15:30N 37°45' W 008°56'0 0.6
2018-Apr-15 14:59N 37°45' W 008°56'0 0.7
2018-Apr-15 14:30N 37°45' W 008°57'0 0.8
2018-Apr-15 14:00N 37°45' W 008°57'0 0.4
2018-Apr-15 13:30N 37°45' W 008°57'4 8.8
2018-Apr-15 13:00N 37°41' W 008°58'713.0
2018-Apr-15 12:30N 37°35' W 009°01'913.2
2018-Apr-15 11:49N 37°27' W 009°06'413.0
2018-Apr-15 11:30N 37°23' W 009°08'1713.6
2018-Apr-15 10:15N 37°08' W 009°17'413.9
2018-Apr-15 09:59N 37°04' W 009°19'18913.3
2018-Apr-14 19:46N 35°58' W 005°39'312.3
2018-Apr-14 19:30N 35°58' W 005°35'611.8
2018-Apr-14 19:00N 36°00' W 005°28'5 9.6
2018-Apr-14 18:30N 36°03' W 005°24'611.4
2018-Apr-14 18:01N 36°09' W 005°24'1 2.6
2018-Apr-14 17:30N 36°09' W 005°26'0 0.1
2018-Apr-14 16:51N 36°09' W 005°26'0 0.0
2018-Apr-14 16:24N 36°09' W 005°26'0 0.0
2018-Apr-14 16:00N 36°09' W 005°26'0 0.0
2018-Apr-14 15:30N 36°09' W 005°26'0 0.0
2018-Apr-14 15:00N 36°09' W 005°26'0 0.0
2018-Apr-14 14:30N 36°09' W 005°26'0 0.0
2018-Apr-14 13:57N 36°09' W 005°26'0 0.0
2018-Apr-14 13:30N 36°09' W 005°26'0 0.0
2018-Apr-14 13:00N 36°09' W 005°26'0 0.0
2018-Apr-14 12:09N 36°09' W 005°26'0 0.0
2018-Apr-14 12:00N 36°09' W 005°26'0 0.0
2018-Apr-14 11:30N 36°09' W 005°26'0 0.0
2018-Apr-14 11:00N 36°09' W 005°26'0 0.0
2018-Apr-14 10:24N 36°09' W 005°26'0 0.0
2018-Apr-14 09:12N 36°09' W 005°26'0 0.0
2018-Apr-14 08:54N 36°09' W 005°26'0 0.0
2018-Apr-14 08:24N 36°09' W 005°26'0 0.0
2018-Apr-14 07:51N 36°09' W 005°26'0 0.0
2018-Apr-14 07:24N 36°09' W 005°26'0 0.0
2018-Apr-14 06:06N 36°09' W 005°26'0 0.1
2018-Apr-14 06:00N 36°09' W 005°26'0 0.0
2018-Apr-14 05:18N 36°09' W 005°26'0 0.0
2018-Apr-14 05:00N 36°09' W 005°26'0 0.0
2018-Apr-14 04:27N 36°09' W 005°26'0 0.0
2018-Apr-14 04:00N 36°09' W 005°26'0 0.0
2018-Apr-14 03:21N 36°09' W 005°26'0 0.0
2018-Apr-14 03:00N 36°09' W 005°26'0 0.0
2018-Apr-14 02:27N 36°09' W 005°26'0 0.1
2018-Apr-14 02:01N 36°09' W 005°26'3 5.6
2018-Apr-14 01:30N 36°07' W 005°23'510.6
2018-Apr-14 01:01N 36°04' W 005°18'21414.5
2018-Apr-13 10:16N 37°11' W 001°05'519.1
2018-Apr-13 10:00N 37°15' W 000°60'1019.1
2018-Apr-13 09:30N 37°21' W 000°51'1019.1
2018-Apr-13 08:57N 37°29' W 000°41'919.6
2018-Apr-13 08:30N 37°34' W 000°33'1019.3
2018-Apr-13 08:00N 37°42' W 000°26'919.3
2018-Apr-13 07:31N 37°50' W 000°19'1019.3
2018-Apr-13 07:00N 37°58' W 000°12'8715.6
2018-Apr-13 01:27N 39°25' W 000°16'3 0.2
2018-Apr-12 06:16N 39°26' W 000°20'0 0.0
2018-Apr-12 05:59N 39°26' W 000°20'1 1.1
2018-Apr-12 05:29N 39°26' W 000°19'3 7.1
2018-Apr-12 05:00N 39°25' W 000°15'1 1.4
2018-Apr-12 04:30N 39°25' W 000°15'2 4.9
2018-Apr-12 04:00N 39°26' W 000°11'0 0.7
2018-Apr-12 03:30N 39°25' W 000°12'0 0.1
2018-Apr-12 02:58N 39°25' W 000°12'3 5.4
2018-Apr-12 02:29N 39°25' W 000°08'39313.8
2018-Apr-10 21:57N 43°06' E 007°04'716.8
2018-Apr-10 21:30N 43°11' E 007°12'816.6
2018-Apr-10 21:00N 43°16' E 007°21'816.6
2018-Apr-10 20:30N 43°22' E 007°30'4617.1
2018-Apr-10 17:50N 43°51' E 008°18'616.8
2018-Apr-10 17:30N 43°55' E 008°23'917.3
2018-Apr-10 17:00N 44°03' E 008°29'817.1
2018-Apr-10 16:30N 44°10' E 008°35'816.8
2018-Apr-10 16:00N 44°17' E 008°41'815.2
2018-Apr-10 15:30N 44°24' E 008°44'2 4.8
2018-Apr-10 15:00N 44°25' E 008°47'0 0.0
2018-Apr-10 14:30N 44°25' E 008°47'0 0.0
2018-Apr-10 14:00N 44°25' E 008°47'0 0.0
2018-Apr-10 13:30N 44°25' E 008°47'0 0.0
2018-Apr-10 13:00N 44°25' E 008°47'0 0.0
2018-Apr-10 12:27N 44°25' E 008°47'0 0.0
2018-Apr-10 12:00N 44°25' E 008°47'0 0.0
2018-Apr-10 11:30N 44°25' E 008°47'0 0.0
2018-Apr-10 11:00N 44°25' E 008°47'0 0.0
2018-Apr-10 10:18N 44°25' E 008°47'0 0.0
2018-Apr-10 10:00N 44°25' E 008°47'0 0.0
2018-Apr-10 09:30N 44°25' E 008°47'0 0.0
2018-Apr-10 09:00N 44°25' E 008°47'0 0.0
2018-Apr-10 08:18N 44°25' E 008°47'0 0.0
2018-Apr-10 08:00N 44°25' E 008°47'0 0.0
2018-Apr-10 07:27N 44°25' E 008°47'0 0.1
2018-Apr-10 06:54N 44°25' E 008°47'0 0.1
2018-Apr-10 06:30N 44°25' E 008°47'0 0.0
2018-Apr-10 06:00N 44°25' E 008°47'0 0.0
2018-Apr-10 05:30N 44°25' E 008°47'0 0.0
2018-Apr-10 04:57N 44°25' E 008°47'0 0.0
2018-Apr-10 04:30N 44°25' E 008°47'0 0.0
2018-Apr-10 04:00N 44°25' E 008°47'0 0.0
2018-Apr-10 03:30N 44°25' E 008°47'0 0.0
2018-Apr-10 03:00N 44°25' E 008°47'0 0.0
2018-Apr-10 02:30N 44°25' E 008°47'0 0.0
2018-Apr-10 02:00N 44°25' E 008°47'0 0.0
2018-Apr-10 01:30N 44°25' E 008°47'0 0.0
2018-Apr-10 01:00N 44°25' E 008°47'0 0.0
2018-Apr-10 00:30N 44°25' E 008°47'0 0.0
2018-Apr-10 00:00N 44°25' E 008°47'0 0.0
2018-Apr-09 23:30N 44°25' E 008°47'0 0.0
2018-Apr-09 23:00N 44°25' E 008°47'0 0.0
2018-Apr-09 22:30N 44°25' E 008°47'0 0.0
2018-Apr-09 22:00N 44°25' E 008°47'0 0.0
2018-Apr-09 21:30N 44°25' E 008°47'0 0.0
2018-Apr-09 21:00N 44°25' E 008°47'0 0.0
2018-Apr-09 20:30N 44°25' E 008°47'0 0.0
2018-Apr-09 20:00N 44°25' E 008°47'0 0.0
2018-Apr-09 19:27N 44°25' E 008°47'0 0.0
2018-Apr-09 19:00N 44°25' E 008°47'0 0.0
2018-Apr-09 18:30N 44°25' E 008°47'0 0.0
2018-Apr-09 18:00N 44°25' E 008°47'0 0.0
2018-Apr-09 17:30N 44°25' E 008°47'0 0.0
2018-Apr-09 17:00N 44°25' E 008°47'0 0.0
2018-Apr-09 16:30N 44°25' E 008°47'0 0.0
2018-Apr-09 16:00N 44°25' E 008°47'0 0.0
2018-Apr-09 15:27N 44°25' E 008°47'0 0.0
2018-Apr-09 15:00N 44°25' E 008°47'0 0.0
2018-Apr-09 14:24N 44°25' E 008°47'0 0.0
2018-Apr-09 13:57N 44°25' E 008°47'0 0.0
2018-Apr-09 13:30N 44°25' E 008°47'0 0.0
2018-Apr-09 13:00N 44°25' E 008°47'0 0.0
2018-Apr-09 12:30N 44°25' E 008°47'0 0.4
2018-Apr-09 12:01N 44°25' E 008°47'3 6.3
2018-Apr-09 11:31N 44°23' E 008°44'510.2
2018-Apr-09 11:01N 44°18' E 008°45'816.9
2018-Apr-09 10:31N 44°12' E 008°53'1 1.9
2018-Apr-09 10:01N 44°11' E 008°54'0 0.5
2018-Apr-09 09:30N 44°11' E 008°54'0 0.5
2018-Apr-09 09:00N 44°12' E 008°54'0 0.6
2018-Apr-09 08:30N 44°12' E 008°54'0 0.8
2018-Apr-09 08:01N 44°12' E 008°53'0 0.9
2018-Apr-09 07:30N 44°12' E 008°53'1 1.1
2018-Apr-09 07:01N 44°13' E 008°52'1 1.3
2018-Apr-09 06:31N 44°13' E 008°51'1 1.2
2018-Apr-09 06:00N 44°14' E 008°51'1 1.2
2018-Apr-09 05:31N 44°14' E 008°50'1 1.1
2018-Apr-09 05:00N 44°15' E 008°50'1 1.4
2018-Apr-09 04:31N 44°15' E 008°49'1 1.4
2018-Apr-09 04:01N 44°16' E 008°49'1 1.4
2018-Apr-09 03:31N 44°16' E 008°48'1 1.4
2018-Apr-09 03:01N 44°16' E 008°47'1 1.2
2018-Apr-09 02:30N 44°17' E 008°46'1 1.2
2018-Apr-09 02:01N 44°17' E 008°46'0 0.7
2018-Apr-09 01:30N 44°17' E 008°45'0 0.1
2018-Apr-09 01:01N 44°17' E 008°45'0 0.3
2018-Apr-09 00:30N 44°17' E 008°45'0 0.8
2018-Apr-09 00:00N 44°18' E 008°46'0 0.5
2018-Apr-08 23:30N 44°18' E 008°46'0 0.3
2018-Apr-08 23:00N 44°18' E 008°46'0 0.2
2018-Apr-08 22:31N 44°18' E 008°46'0 0.7
2018-Apr-08 22:01N 44°18' E 008°46'0 0.9
2018-Apr-08 21:30N 44°17' E 008°46'0 0.7
2018-Apr-08 21:01N 44°17' E 008°46'1 1.2
2018-Apr-08 20:31N 44°17' E 008°47'1 1.0
2018-Apr-08 20:01N 44°17' E 008°47'0 0.8
2018-Apr-08 19:31N 44°17' E 008°48'3 5.3
2018-Apr-08 19:01N 44°15' E 008°50'5 9.5
2018-Apr-08 18:31N 44°12' E 008°55'5 9.9
2018-Apr-08 18:01N 44°08' E 008°60'510.1
2018-Apr-08 17:31N 44°05' E 009°05'510.1
2018-Apr-08 17:01N 44°02' E 009°10'510.2
2018-Apr-08 16:30N 43°58' E 009°16'510.2
2018-Apr-08 16:01N 43°55' E 009°21'510.1
2018-Apr-08 15:30N 43°52' E 009°27'510.1
2018-Apr-08 15:00N 43°49' E 009°32'510.2
2018-Apr-08 14:30N 43°46' E 009°38'510.3
2018-Apr-08 14:00N 43°42' E 009°43'510.3
2018-Apr-08 13:30N 43°39' E 009°48'510.1
2018-Apr-08 13:00N 43°35' E 009°53'510.3
2018-Apr-08 12:30N 43°32' E 009°59'510.4
2018-Apr-08 12:00N 43°31' E 010°06'5 9.0
2018-Apr-08 11:30N 43°31' E 010°12'4 8.0
2018-Apr-08 11:00N 43°32' E 010°17'2 4.6
2018-Apr-08 10:30N 43°34' E 010°18'0 0.1
2018-Apr-08 09:59N 43°35' E 010°18'0 0.0
2018-Apr-08 09:26N 43°35' E 010°18'0 0.0
2018-Apr-08 08:59N 43°35' E 010°18'0 0.0
2018-Apr-08 08:29N 43°35' E 010°18'0 0.0
2018-Apr-08 07:59N 43°35' E 010°18'0 0.0
2018-Apr-08 07:29N 43°35' E 010°18'0 0.0
2018-Apr-08 06:59N 43°35' E 010°18'0 0.0
2018-Apr-08 06:29N 43°35' E 010°18'0 0.0
2018-Apr-08 05:59N 43°35' E 010°18'0 0.0
2018-Apr-08 05:29N 43°35' E 010°18'0 0.0
2018-Apr-08 04:56N 43°35' E 010°18'0 0.0
2018-Apr-08 04:29N 43°35' E 010°18'0 0.0
2018-Apr-08 03:59N 43°35' E 010°18'0 0.0
2018-Apr-08 03:29N 43°35' E 010°18'0 0.0
2018-Apr-08 02:59N 43°35' E 010°18'0 0.0
2018-Apr-08 02:29N 43°35' E 010°18'0 0.0
2018-Apr-08 01:56N 43°35' E 010°18'0 0.0
2018-Apr-08 01:29N 43°35' E 010°18'0 0.0
2018-Apr-08 00:59N 43°35' E 010°18'0 0.0
2018-Apr-08 00:29N 43°35' E 010°18'0 0.0
2018-Apr-07 23:59N 43°35' E 010°18'0 0.0
2018-Apr-07 23:26N 43°35' E 010°18'0 0.0
2018-Apr-07 22:59N 43°35' E 010°18'0 0.0
2018-Apr-07 22:29N 43°35' E 010°18'0 0.0
2018-Apr-07 21:59N 43°35' E 010°18'0 0.0
2018-Apr-07 21:29N 43°35' E 010°18'0 0.0
2018-Apr-07 20:59N 43°35' E 010°18'0 0.0
2018-Apr-07 20:29N 43°35' E 010°18'0 0.0
2018-Apr-07 19:59N 43°35' E 010°18'0 0.0
2018-Apr-07 19:29N 43°35' E 010°18'0 0.0
2018-Apr-07 18:59N 43°35' E 010°18'0 0.0
2018-Apr-07 18:29N 43°35' E 010°18'0 0.0
2018-Apr-07 17:59N 43°35' E 010°18'0 0.0
2018-Apr-07 17:29N 43°35' E 010°18'0 0.0
2018-Apr-07 16:59N 43°35' E 010°18'0 0.0
2018-Apr-07 16:29N 43°35' E 010°18'0 0.0
2018-Apr-07 15:59N 43°35' E 010°18'0 0.0
2018-Apr-07 15:29N 43°35' E 010°18'0 0.0
2018-Apr-07 14:59N 43°35' E 010°18'0 0.0
2018-Apr-07 14:29N 43°35' E 010°18'0 0.0
2018-Apr-07 13:56N 43°35' E 010°18'0 0.0
2018-Apr-07 13:26N 43°35' E 010°18'0 0.0
2018-Apr-07 12:59N 43°35' E 010°18'0 0.0
2018-Apr-07 12:29N 43°35' E 010°18'0 0.0
2018-Apr-07 11:59N 43°35' E 010°18'0 0.0
2018-Apr-07 11:29N 43°35' E 010°18'0 0.0
2018-Apr-07 10:59N 43°35' E 010°18'0 0.0
2018-Apr-07 10:29N 43°35' E 010°18'0 0.0
2018-Apr-07 09:59N 43°35' E 010°18'0 0.0
2018-Apr-07 09:29N 43°35' E 010°18'0 0.0
2018-Apr-07 08:59N 43°35' E 010°18'0 0.0
2018-Apr-07 08:29N 43°35' E 010°18'0 0.0
2018-Apr-07 07:59N 43°35' E 010°18'0 0.0
2018-Apr-07 07:29N 43°35' E 010°18'0 0.0
2018-Apr-07 06:59N 43°35' E 010°18'0 0.0
2018-Apr-07 06:29N 43°35' E 010°18'0 0.0
2018-Apr-07 05:59N 43°35' E 010°18'0 0.4
2018-Apr-07 05:30N 43°34' E 010°18'2 4.1
2018-Apr-07 05:01N 43°32' E 010°17'2 4.3
2018-Apr-07 04:30N 43°31' E 010°15'5 9.3
2018-Apr-07 04:00N 43°27' E 010°11'815.1
2018-Apr-07 03:31N 43°20' E 010°07'917.8
2018-Apr-07 03:00N 43°12' E 010°04'918.2
2018-Apr-07 02:31N 43°03' E 010°01'918.0
2018-Apr-07 02:00N 42°54' E 009°58'917.6
2018-Apr-07 01:31N 42°46' E 009°57'918.0
2018-Apr-07 01:00N 42°36' E 009°57'918.2
2018-Apr-07 00:31N 42°27' E 009°58'918.0
2018-Apr-07 00:01N 42°19' E 010°00'918.2
2018-Apr-06 23:31N 42°12' E 010°09'1018.2
2018-Apr-06 22:58N 42°07' E 010°20'1018.6
2018-Apr-06 22:24N 42°01' E 010°31'718.2
2018-Apr-06 22:00N 41°56' E 010°40'918.2
2018-Apr-06 21:29N 41°51' E 010°50'918.3
2018-Apr-06 20:59N 41°46' E 011°00'3018.2
2018-Apr-06 19:21N 41°30' E 011°33'11717.8
2018-Apr-06 12:48N 40°38' E 013°53'518.2
2018-Apr-06 12:30N 40°37' E 013°59'917.5
2018-Apr-06 12:00N 40°41' E 014°10'816.6
2018-Apr-06 11:30N 40°47' E 014°17'3 5.7
2018-Apr-06 11:00N 40°50' E 014°17'0 0.1
2018-Apr-06 10:28N 40°50' E 014°17'0 0.0
2018-Apr-06 09:58N 40°50' E 014°17'0 0.0
2018-Apr-06 09:28N 40°50' E 014°17'0 0.0
2018-Apr-06 08:58N 40°50' E 014°17'0 0.0
2018-Apr-06 08:28N 40°50' E 014°17'0 0.0
2018-Apr-06 07:58N 40°50' E 014°17'  

Dump ship's entire track history